Toyomasa Maru — JJ3927 — position and weather

sailwx.info

Track history (hours):
 
Tides and Currents Weather Stations Pressure Air Temp Water Temp Dewpoint Dewpoint Depression Visibility Wind Speed Wind Dir Waves Ship Positions

Toyomasa Maru

Last reported at 2015-Jul-31 18:33 UTC. Time now 2015-Jul-31 19:26 UTC.
Position N 35°56' E 141°04'.

Length 101 m; draft 6.8 m.

Type: Tanker. MMSI: 431300401.

Date/timePositionNaut miles runAvg speedWind from/ knotsBaromVisibWave heightAir tempDewpointWater temp
2015-Jul-31 18:33N 35°56' E 141°04'1312.6
2015-Jul-31 17:33N 35°44' E 141°02'1312.4
2015-Jul-31 16:31N 35°33' E 140°53'1212.8
2015-Jul-31 15:33N 35°23' E 140°44'1412.8
2015-Jul-31 14:29N 35°12' E 140°34'1713.2
2015-Jul-31 13:11N 35°02' E 140°18'913.8
2015-Jul-31 12:31N 34°57' E 140°08'2110.4
2015-Jul-31 10:32N 34°58' E 139°43'1312.8
2015-Jul-31 09:33N 35°11' E 139°46'1211.8
2015-Jul-31 08:33N 35°22' E 139°42'8 8.4
2015-Jul-31 07:33N 35°30' E 139°45'0 0.1
2015-Jul-31 06:33N 35°30' E 139°45'0 0.0
2015-Jul-31 05:33N 35°30' E 139°45'0 0.0
2015-Jul-31 04:27N 35°30' E 139°45'0 0.0
2015-Jul-31 03:33N 35°30' E 139°45'1 1.1
2015-Jul-31 02:33N 35°30' E 139°44'7 6.7
2015-Jul-31 01:33N 35°23' E 139°46'10 9.8
2015-Jul-31 00:33N 35°13' E 139°47'1111.3
2015-Jul-30 23:33N 35°02' E 139°44'1110.7
2015-Jul-30 22:30N 34°51' E 139°47'1110.0
2015-Jul-30 21:25N 34°49' E 139°60'1012.1
2015-Jul-30 20:33N 34°53' E 140°11'2612.8
2015-Jul-30 18:33N 35°09' E 140°35'1313.2
2015-Jul-30 17:33N 35°20' E 140°44'1313.2
2015-Jul-30 16:33N 35°32' E 140°53'1413.9
2015-Jul-30 15:33N 35°44' E 141°01'1414.1
2015-Jul-30 14:33N 35°58' E 141°04'1414.2
2015-Jul-30 13:33N 36°12' E 141°07'1414.1
2015-Jul-30 12:33N 36°25' E 141°11'1414.2
2015-Jul-30 11:33N 36°39' E 141°15'1414.2
2015-Jul-30 10:33N 36°53' E 141°18'1414.1
2015-Jul-30 09:33N 37°07' E 141°21'  
2015-Jul-27 09:05N 35°52' E 141°01'6413.2
2015-Jul-27 04:13N 34°60' E 140°15'913.2
2015-Jul-27 03:33N 34°55' E 140°06'1512.9
2015-Jul-27 02:21N 34°46' E 139°50'2713.7
2015-Jul-27 00:25N 34°37' E 139°20'27 0.8
2015-Jul-25 14:12N 35°01' E 139°35'913.3
2015-Jul-25 13:33N 35°07' E 139°43'1212.2
2015-Jul-25 12:33N 35°19' E 139°43'1211.8
2015-Jul-25 11:33N 35°30' E 139°47'1 0.6
2015-Jul-25 10:31N 35°31' E 139°46'0 0.0
2015-Jul-25 09:31N 35°31' E 139°46'0 0.0
2015-Jul-25 08:31N 35°31' E 139°46'0 0.0
2015-Jul-25 07:31N 35°31' E 139°46'0 0.0
2015-Jul-25 06:28N 35°31' E 139°46'0 0.0
2015-Jul-25 05:22N 35°31' E 139°46'1 1.8
2015-Jul-25 04:33N 35°30' E 139°45'6 5.7
2015-Jul-25 03:30N 35°24' E 139°46'0 0.1
2015-Jul-25 02:21N 35°24' E 139°46'0 0.0
2015-Jul-25 01:33N 35°24' E 139°46'0 0.0
2015-Jul-25 00:33N 35°24' E 139°46'0 0.0
2015-Jul-24 23:30N 35°24' E 139°46'0 0.0
2015-Jul-24 22:30N 35°24' E 139°46'0 0.0
2015-Jul-24 21:33N 35°24' E 139°46'0 0.0
2015-Jul-24 20:33N 35°24' E 139°46'0 0.0
2015-Jul-24 19:33N 35°24' E 139°46'0 0.0
2015-Jul-24 18:30N 35°24' E 139°46'0 0.0
2015-Jul-24 17:33N 35°24' E 139°46'0 0.0
2015-Jul-24 16:33N 35°24' E 139°46'0 0.0
2015-Jul-24 15:24N 35°24' E 139°46'0 0.0
2015-Jul-24 14:30N 35°24' E 139°46'0 0.0
2015-Jul-24 13:30N 35°24' E 139°46'0 0.0
2015-Jul-24 12:33N 35°24' E 139°46'0 0.0
2015-Jul-24 11:33N 35°24' E 139°46'0 0.0
2015-Jul-24 10:33N 35°24' E 139°46'0 0.1
2015-Jul-24 09:33N 35°24' E 139°46'0 0.1
2015-Jul-24 08:33N 35°24' E 139°46'0 0.1
2015-Jul-24 07:33N 35°24' E 139°46'1 1.0
2015-Jul-24 06:34N 35°23' E 139°45'1111.4
2015-Jul-24 05:34N 35°12' E 139°47'1312.5
2015-Jul-24 04:33N 35°01' E 139°39'7614.5
2015-Jul-23 23:17N 34°20' E 138°21'16410.4
2015-Jul-23 07:33N 34°07' E 135°03'3 0.5
2015-Jul-23 00:17N 34°07' E 135°07'1 1.9
2015-Jul-22 23:33N 34°08' E 135°06'  
Track history (hours):
 
Tides and Currents Weather Stations Pressure Air Temp Water Temp Dewpoint Dewpoint Depression Visibility Wind Speed Wind Dir Waves Ship Positions

Toyomasa Maru

Last reported at 2015-Jul-31 18:33 UTC. Time now 2015-Jul-31 19:26 UTC.
Position N 35°56' E 141°04'.

Length 101 m; draft 6.8 m.

Type: Tanker. MMSI: 431300401.

Date/timePositionNaut miles runAvg speedWind from/ knotsBaromVisibWave heightAir tempDewpointWater temp
2015-Jul-31 18:33N 35°56' E 141°04'1312.6
2015-Jul-31 17:33N 35°44' E 141°02'1312.4
2015-Jul-31 16:31N 35°33' E 140°53'1212.8
2015-Jul-31 15:33N 35°23' E 140°44'1412.8
2015-Jul-31 14:29N 35°12' E 140°34'1713.2
2015-Jul-31 13:11N 35°02' E 140°18'913.8
2015-Jul-31 12:31N 34°57' E 140°08'2110.4
2015-Jul-31 10:32N 34°58' E 139°43'1312.8
2015-Jul-31 09:33N 35°11' E 139°46'1211.8
2015-Jul-31 08:33N 35°22' E 139°42'8 8.4
2015-Jul-31 07:33N 35°30' E 139°45'0 0.1
2015-Jul-31 06:33N 35°30' E 139°45'0 0.0
2015-Jul-31 05:33N 35°30' E 139°45'0 0.0
2015-Jul-31 04:27N 35°30' E 139°45'0 0.0
2015-Jul-31 03:33N 35°30' E 139°45'1 1.1
2015-Jul-31 02:33N 35°30' E 139°44'7 6.7
2015-Jul-31 01:33N 35°23' E 139°46'10 9.8
2015-Jul-31 00:33N 35°13' E 139°47'1111.3
2015-Jul-30 23:33N 35°02' E 139°44'1110.7
2015-Jul-30 22:30N 34°51' E 139°47'1110.0
2015-Jul-30 21:25N 34°49' E 139°60'1012.1
2015-Jul-30 20:33N 34°53' E 140°11'2612.8
2015-Jul-30 18:33N 35°09' E 140°35'1313.2
2015-Jul-30 17:33N 35°20' E 140°44'1313.2
2015-Jul-30 16:33N 35°32' E 140°53'1413.9
2015-Jul-30 15:33N 35°44' E 141°01'1414.1
2015-Jul-30 14:33N 35°58' E 141°04'1414.2
2015-Jul-30 13:33N 36°12' E 141°07'1414.1
2015-Jul-30 12:33N 36°25' E 141°11'1414.2
2015-Jul-30 11:33N 36°39' E 141°15'1414.2
2015-Jul-30 10:33N 36°53' E 141°18'1414.1
2015-Jul-30 09:33N 37°07' E 141°21'  
2015-Jul-27 09:05N 35°52' E 141°01'6413.2
2015-Jul-27 04:13N 34°60' E 140°15'913.2
2015-Jul-27 03:33N 34°55' E 140°06'1512.9
2015-Jul-27 02:21N 34°46' E 139°50'2713.7
2015-Jul-27 00:25N 34°37' E 139°20'27 0.8
2015-Jul-25 14:12N 35°01' E 139°35'913.3
2015-Jul-25 13:33N 35°07' E 139°43'1212.2
2015-Jul-25 12:33N 35°19' E 139°43'1211.8
2015-Jul-25 11:33N 35°30' E 139°47'1 0.6
2015-Jul-25 10:31N 35°31' E 139°46'0 0.0
2015-Jul-25 09:31N 35°31' E 139°46'0 0.0
2015-Jul-25 08:31N 35°31' E 139°46'0 0.0
2015-Jul-25 07:31N 35°31' E 139°46'0 0.0
2015-Jul-25 06:28N 35°31' E 139°46'0 0.0
2015-Jul-25 05:22N 35°31' E 139°46'1 1.8
2015-Jul-25 04:33N 35°30' E 139°45'6 5.7
2015-Jul-25 03:30N 35°24' E 139°46'0 0.1
2015-Jul-25 02:21N 35°24' E 139°46'0 0.0
2015-Jul-25 01:33N 35°24' E 139°46'0 0.0
2015-Jul-25 00:33N 35°24' E 139°46'0 0.0
2015-Jul-24 23:30N 35°24' E 139°46'0 0.0
2015-Jul-24 22:30N 35°24' E 139°46'0 0.0
2015-Jul-24 21:33N 35°24' E 139°46'0 0.0
2015-Jul-24 20:33N 35°24' E 139°46'0 0.0
2015-Jul-24 19:33N 35°24' E 139°46'0 0.0
2015-Jul-24 18:30N 35°24' E 139°46'0 0.0
2015-Jul-24 17:33N 35°24' E 139°46'0 0.0
2015-Jul-24 16:33N 35°24' E 139°46'0 0.0
2015-Jul-24 15:24N 35°24' E 139°46'0 0.0
2015-Jul-24 14:30N 35°24' E 139°46'0 0.0
2015-Jul-24 13:30N 35°24' E 139°46'0 0.0
2015-Jul-24 12:33N 35°24' E 139°46'0 0.0
2015-Jul-24 11:33N 35°24' E 139°46'0 0.0
2015-Jul-24 10:33N 35°24' E 139°46'0 0.1
2015-Jul-24 09:33N 35°24' E 139°46'0 0.1
2015-Jul-24 08:33N 35°24' E 139°46'0 0.1
2015-Jul-24 07:33N 35°24' E 139°46'1 1.0
2015-Jul-24 06:34N 35°23' E 139°45'1111.4
2015-Jul-24 05:34N 35°12' E 139°47'1312.5
2015-Jul-24 04:33N 35°01' E 139°39'7614.5
2015-Jul-23 23:17N 34°20' E 138°21'16410.4
2015-Jul-23 07:33N 34°07' E 135°03'3 0.5
2015-Jul-23 00:17N 34°07' E 135°07'1 1.9
2015-Jul-22 23:33N 34°08' E 135°06'  

Dump ship's entire track history